createdAt,value
2018-03-23T00:00:44.512Z,99060.46
2018-03-23T00:03:17.811Z,99061.47
2018-03-23T00:05:50.948Z,99066.94
2018-03-23T00:08:24.788Z,99063.81
2018-03-23T00:10:57.739Z,99069.19
2018-03-23T00:13:31.195Z,99066.41
2018-03-23T00:16:04.250Z,99066.17
2018-03-23T00:18:37.495Z,99060.67
2018-03-23T00:21:10.907Z,99047.09
2018-03-23T00:23:43.847Z,99046.19
2018-03-23T00:26:17.653Z,99043.49
2018-03-23T00:28:51.944Z,99044.77
2018-03-23T00:31:24.905Z,99044.23
2018-03-23T00:33:58.259Z,99039.28
2018-03-23T00:36:31.362Z,99040.80
2018-03-23T00:39:04.947Z,99043.28
2018-03-23T00:41:40.502Z,99036.28
2018-03-23T00:44:14.372Z,99051.97
2018-03-23T00:46:47.880Z,99042.33
2018-03-23T00:49:21.016Z,99043.70
2018-03-23T00:51:53.896Z,99048.91
2018-03-23T00:54:27.394Z,99036.86
2018-03-23T00:57:05.997Z,99025.78
2018-03-23T00:59:39.680Z,99028.42
2018-03-23T01:02:12.735Z,99027.27
2018-03-23T01:04:46.367Z,99021.98
2018-03-23T01:07:19.646Z,99023.38
2018-03-23T01:09:52.629Z,99030.32
2018-03-23T01:12:26.055Z,99034.08
2018-03-23T01:14:59.259Z,99025.28
2018-03-23T01:17:32.385Z,99031.04
2018-03-23T01:22:37.048Z,99023.69
2018-03-23T01:25:10.121Z,99022.61
2018-03-23T01:27:43.707Z,99020.89
2018-03-23T01:30:17.214Z,99017.96
2018-03-23T01:32:52.959Z,99013.70
2018-03-23T01:35:26.318Z,99002.92
2018-03-23T01:37:59.647Z,99005.28
2018-03-23T01:40:32.643Z,99000.92
2018-03-23T01:43:06.396Z,98990.64
2018-03-23T01:45:39.311Z,98992.86
2018-03-23T01:48:12.939Z,99014.00
2018-03-23T01:50:46.167Z,99004.35
2018-03-23T01:53:28.140Z,99007.98
2018-03-23T01:56:02.714Z,99004.98
2018-03-23T01:58:35.860Z,98999.41
2018-03-23T02:01:08.939Z,99001.97
2018-03-23T02:03:41.983Z,99001.18
2018-03-23T02:06:15.225Z,98995.55
2018-03-23T02:08:48.314Z,98989.27
2018-03-23T02:11:21.325Z,98988.02
2018-03-23T02:13:55.617Z,98988.08
2018-03-23T02:16:29.036Z,98987.10
2018-03-23T02:19:03.892Z,98985.44
2018-03-23T02:21:37.560Z,98985.41
2018-03-23T02:24:11.076Z,98988.92
2018-03-23T02:26:44.064Z,98990.24
2018-03-23T02:29:16.997Z,98981.92
2018-03-23T02:31:50.886Z,98980.13
2018-03-23T02:34:23.764Z,98978.16
2018-03-23T02:36:56.714Z,98976.81
2018-03-23T02:39:29.980Z,98988.78
2018-03-23T02:42:03.230Z,98986.17
2018-03-23T02:44:36.187Z,98976.30
2018-03-23T02:47:09.446Z,98979.95
2018-03-23T02:49:42.750Z,98973.64
2018-03-23T02:52:16.161Z,98968.41
2018-03-23T02:54:49.453Z,98972.30
2018-03-23T02:57:22.851Z,98963.87
2018-03-23T02:59:55.975Z,98966.69
2018-03-23T03:02:28.944Z,98951.89
2018-03-23T03:05:01.932Z,98955.78
2018-03-23T03:07:34.934Z,98953.00
2018-03-23T03:10:08.091Z,98947.20
2018-03-23T03:12:42.160Z,98950.38
2018-03-23T03:15:15.487Z,98958.83
2018-03-23T03:17:48.670Z,98955.70
2018-03-23T03:20:22.045Z,98957.31
2018-03-23T03:22:55.801Z,98951.38
2018-03-23T03:25:28.703Z,98952.72
2018-03-23T03:28:01.856Z,98946.33
2018-03-23T03:30:37.651Z,98955.20
2018-03-23T03:33:10.502Z,98956.23
2018-03-23T03:35:43.426Z,98954.73
2018-03-23T03:45:04.347Z,98949.28
2018-03-23T03:47:37.612Z,98945.48
2018-03-23T03:50:10.750Z,98946.64
2018-03-23T03:52:44.376Z,98949.15
2018-03-23T03:55:18.401Z,98945.23
2018-03-23T03:57:52.229Z,98940.34
2018-03-23T04:00:25.811Z,98925.81
2018-03-23T04:02:59.757Z,98937.62
2018-03-23T04:05:32.757Z,98942.92
2018-03-23T04:08:05.824Z,98941.54
2018-03-23T04:10:38.937Z,98940.64
2018-03-23T04:13:11.984Z,98947.79
2018-03-23T04:15:45.202Z,98940.95
2018-03-23T04:18:18.348Z,98937.09
2018-03-23T04:20:51.402Z,98936.53
2018-03-23T04:23:24.537Z,98935.23
2018-03-23T04:25:57.537Z,98935.70
2018-03-23T04:28:31.015Z,98928.39
2018-03-23T04:31:04.330Z,98917.27
2018-03-23T04:33:37.708Z,98907.53
2018-03-23T04:36:12.077Z,98913.05
2018-03-23T04:38:46.252Z,98905.92
2018-03-23T04:41:19.310Z,98895.56
2018-03-23T04:43:52.907Z,98899.76
2018-03-23T04:46:26.553Z,98899.59
2018-03-23T04:48:59.694Z,98896.61
2018-03-23T04:51:33.119Z,98899.84
2018-03-23T04:54:06.828Z,98900.35
2018-03-23T04:56:39.876Z,98903.39
2018-03-23T04:59:13.680Z,98900.83
2018-03-23T05:01:46.879Z,98897.67
2018-03-23T05:04:20.037Z,98900.35
2018-03-23T05:06:53.041Z,98891.09
2018-03-23T05:09:26.669Z,98890.47
2018-03-23T05:11:59.788Z,98891.06
2018-03-23T05:14:33.011Z,98886.16
2018-03-23T05:17:06.669Z,98887.48
2018-03-23T05:19:39.920Z,98882.64
2018-03-23T05:22:13.149Z,98886.86
2018-03-23T05:24:47.348Z,98887.73
2018-03-23T05:27:20.540Z,98896.22
2018-03-23T05:29:53.864Z,98895.56
2018-03-23T05:32:27.097Z,98894.72
2018-03-23T05:35:00.140Z,98890.91
2018-03-23T05:37:34.114Z,98889.56
2018-03-23T05:40:07.680Z,98881.20
2018-03-23T05:42:40.781Z,98885.73
2018-03-23T05:45:14.152Z,98888.11
2018-03-23T05:47:47.269Z,98887.73
2018-03-23T05:50:20.325Z,98889.78
2018-03-23T05:52:54.048Z,98887.39
2018-03-23T05:55:28.032Z,98891.44
2018-03-23T05:58:01.256Z,98881.22
2018-03-23T06:00:35.121Z,98894.00
2018-03-23T06:03:08.198Z,98892.76
2018-03-23T06:05:41.362Z,98890.57
2018-03-23T06:08:15.173Z,98894.91
2018-03-23T06:10:48.181Z,98881.98
2018-03-23T06:13:26.501Z,98885.77
2018-03-23T06:15:59.837Z,98895.81
2018-03-23T06:18:33.187Z,98897.84
2018-03-23T06:21:09.509Z,98894.06
2018-03-23T06:23:43.215Z,98896.17
2018-03-23T06:26:16.616Z,98891.56
2018-03-23T06:28:51.438Z,98894.34
2018-03-23T06:31:26.574Z,98894.44
2018-03-23T06:34:02.234Z,98872.84
2018-03-23T06:36:42.052Z,98899.30
2018-03-23T06:39:20.500Z,98902.55
2018-03-23T06:41:54.701Z,98902.49
2018-03-23T06:44:31.850Z,98901.11
2018-03-23T06:47:07.591Z,98897.78
2018-03-23T06:49:42.513Z,98895.49
2018-03-23T06:52:18.008Z,98890.97
2018-03-23T06:55:04.139Z,98896.28
2018-03-23T06:57:43.433Z,98786.83
2018-03-23T07:00:23.774Z,98836.52
2018-03-23T07:02:57.355Z,98905.97
2018-03-23T07:05:32.623Z,98907.89
2018-03-23T07:08:08.206Z,98890.09
2018-03-23T07:10:41.978Z,98905.63
2018-03-23T07:13:15.082Z,98902.28
2018-03-23T07:15:50.161Z,98907.69
2018-03-23T07:18:35.158Z,98908.20
2018-03-23T07:21:08.703Z,98904.15
2018-03-23T07:23:42.738Z,98905.57
2018-03-23T07:26:16.845Z,98902.28
2018-03-23T07:28:49.982Z,98905.47
2018-03-23T07:31:23.330Z,98902.98
2018-03-23T07:33:56.478Z,98896.36
2018-03-23T07:36:29.922Z,98893.11
2018-03-23T07:39:03.459Z,98899.36
2018-03-23T07:41:37.708Z,98895.00
2018-03-23T07:44:11.376Z,98907.02
2018-03-23T07:46:47.293Z,98906.86
2018-03-23T07:49:21.976Z,98907.50
2018-03-23T07:51:55.486Z,98913.36
2018-03-23T07:54:30.650Z,98904.63
2018-03-23T07:57:04.812Z,98905.58
2018-03-23T07:59:41.590Z,98910.31
2018-03-23T08:02:17.063Z,98910.45
2018-03-23T08:04:50.878Z,98911.48
2018-03-23T08:07:24.361Z,98905.41
2018-03-23T08:09:58.057Z,98907.33
2018-03-23T08:12:31.388Z,98913.41
2018-03-23T08:15:06.638Z,98906.16
2018-03-23T08:17:41.836Z,98894.56
2018-03-23T08:20:15.214Z,98896.35
2018-03-23T08:22:48.365Z,98900.16
2018-03-23T08:25:21.480Z,98897.69
2018-03-23T08:27:55.113Z,98905.48
2018-03-23T08:30:28.887Z,98904.47
2018-03-23T08:33:02.284Z,98906.48
2018-03-23T08:35:36.203Z,98903.46
2018-03-23T08:38:09.853Z,98895.66
2018-03-23T08:40:47.313Z,98901.97
2018-03-23T08:43:20.576Z,98888.47
2018-03-23T08:45:54.275Z,98865.59
2018-03-23T08:48:27.993Z,98891.94
2018-03-23T08:51:08.620Z,98897.34
2018-03-23T08:53:43.480Z,98900.36
2018-03-23T08:56:19.262Z,98887.80
2018-03-23T08:58:53.001Z,98886.64
2018-03-23T09:01:26.519Z,98901.68
2018-03-23T09:03:59.956Z,98894.97
2018-03-23T09:06:33.135Z,98881.83
2018-03-23T09:09:06.871Z,98888.38
2018-03-23T09:11:42.428Z,98893.06
2018-03-23T09:14:16.433Z,98897.41
2018-03-23T09:16:50.005Z,98900.39
2018-03-23T09:19:24.379Z,98880.48
2018-03-23T09:21:59.096Z,98902.34
2018-03-23T09:24:32.753Z,98905.53
2018-03-23T09:27:08.154Z,98893.30
2018-03-23T09:29:47.928Z,98898.14
2018-03-23T09:32:24.338Z,98896.42
2018-03-23T09:34:58.362Z,98888.08
2018-03-23T09:37:33.632Z,98882.81
2018-03-23T09:40:07.795Z,98875.94
2018-03-23T09:42:49.126Z,98880.62
2018-03-23T09:45:29.672Z,98880.41
2018-03-23T09:48:04.116Z,98870.96
2018-03-23T09:50:37.907Z,98869.59
2018-03-23T09:53:10.986Z,98873.05
2018-03-23T09:55:44.936Z,98875.77
2018-03-23T09:58:18.711Z,98872.36
2018-03-23T10:00:53.363Z,98861.77
2018-03-23T10:03:28.185Z,98864.01
2018-03-23T10:06:02.722Z,98861.95
2018-03-23T10:08:36.632Z,98854.67
2018-03-23T10:11:10.216Z,98845.09
2018-03-23T10:13:44.083Z,98840.98
2018-03-23T10:16:19.669Z,98834.69
2018-03-23T10:18:54.344Z,98833.59
2018-03-23T10:21:28.553Z,98836.88
2018-03-23T10:24:02.747Z,98841.93
2018-03-23T10:26:36.241Z,98837.47
2018-03-23T10:29:11.166Z,98835.12
2018-03-23T10:31:44.560Z,98826.78
2018-03-23T10:34:18.103Z,98824.77
2018-03-23T10:36:51.496Z,98808.33
2018-03-23T10:39:25.323Z,98825.08
2018-03-23T10:41:58.661Z,98821.11
2018-03-23T10:44:34.508Z,98816.97
2018-03-23T10:47:09.787Z,98814.16
2018-03-23T10:49:43.594Z,98804.97
2018-03-23T10:52:17.963Z,98805.08
2018-03-23T10:54:52.806Z,98808.23
2018-03-23T10:57:26.270Z,98804.11
2018-03-23T10:59:59.538Z,98800.06
2018-03-23T11:02:41.246Z,98800.06
2018-03-23T11:05:18.505Z,98796.47
2018-03-23T11:07:54.982Z,98792.52
2018-03-23T11:10:37.102Z,98785.72
2018-03-23T11:13:14.163Z,98786.38
2018-03-23T11:15:48.292Z,98785.91
2018-03-23T11:18:24.217Z,98783.63
2018-03-23T11:21:00.389Z,98780.39
2018-03-23T11:23:36.751Z,98794.58
2018-03-23T11:28:58.197Z,98772.84
2018-03-23T11:31:36.341Z,98767.23
2018-03-23T11:34:12.153Z,98759.53
2018-03-23T11:41:31.754Z,98772.59
2018-03-23T11:47:26.888Z,98758.81
2018-03-23T11:53:09.266Z,98757.75
2018-03-23T11:59:25.608Z,98743.30
2018-03-23T12:02:11.190Z,98749.41
2018-03-23T12:05:01.988Z,98744.80
2018-03-23T12:07:49.539Z,98742.39
2018-03-23T12:10:28.873Z,98745.29
2018-03-23T12:13:14.707Z,98743.92
2018-03-23T12:18:54.652Z,98740.88
2018-03-23T12:21:38.564Z,98733.05
2018-03-23T12:24:24.740Z,98731.50
2018-03-23T12:27:04.363Z,98726.12
2018-03-23T12:29:50.979Z,98725.07
2018-03-23T12:32:30.906Z,98727.86
2018-03-23T12:35:10.442Z,98722.62
2018-03-23T12:37:46.660Z,98715.39
2018-03-23T12:40:28.551Z,98716.73
2018-03-23T12:43:07.850Z,98720.17
2018-03-23T12:48:12.629Z,98719.34
2018-03-23T12:50:49.498Z,98712.27
2018-03-23T12:53:26.572Z,98708.52
2018-03-23T12:56:00.742Z,98697.75
2018-03-23T12:58:38.516Z,98699.39
2018-03-23T13:01:14.140Z,98689.40
2018-03-23T17:26:11.422Z,98558.16
2018-03-23T17:29:01.165Z,98563.74
2018-03-23T17:31:34.765Z,98567.87
2018-03-23T17:34:19.004Z,98569.93
2018-03-23T17:37:00.086Z,98568.34
2018-03-23T17:42:06.187Z,98569.54
2018-03-23T17:44:41.515Z,98571.84
2018-03-23T17:47:14.929Z,98576.27
2018-03-23T17:49:50.088Z,98573.08
2018-03-23T17:52:24.856Z,98572.66
2018-03-23T17:55:01.754Z,98571.30
2018-03-23T17:57:42.404Z,98572.34
2018-03-23T18:00:15.784Z,98571.48
2018-03-23T18:02:49.388Z,98570.35
2018-03-23T18:05:24.045Z,98573.11
2018-03-23T18:10:25.609Z,98570.64
2018-03-23T18:12:58.644Z,98571.13
2018-03-23T18:15:32.883Z,98572.62
2018-03-23T18:18:06.964Z,98579.46
2018-03-23T18:20:40.739Z,98580.17
2018-03-23T18:23:14.590Z,98579.98
2018-03-23T18:25:48.995Z,98585.33
2018-03-23T18:28:22.723Z,98579.29
2018-03-23T18:30:56.479Z,98575.69
2018-03-23T18:33:31.255Z,98581.41
2018-03-23T18:36:05.425Z,98580.25
2018-03-23T18:38:39.805Z,98578.25
2018-03-23T18:41:13.114Z,98580.49
2018-03-23T18:43:46.795Z,98584.56
2018-03-23T18:46:20.450Z,98579.80
2018-03-23T18:48:54.193Z,98575.11
2018-03-23T18:51:28.162Z,98579.42
2018-03-23T18:54:01.614Z,98582.86
2018-03-23T18:56:34.918Z,98581.43
2018-03-23T18:59:08.960Z,98588.73
2018-03-23T19:01:44.050Z,98586.25
2018-03-23T19:04:17.384Z,98581.61
2018-03-23T19:06:50.685Z,98583.93
2018-03-23T19:09:23.884Z,98582.20
2018-03-23T19:11:57.138Z,98575.77
2018-03-23T19:14:31.328Z,98587.97
2018-03-23T19:17:04.681Z,98580.55
2018-03-23T19:19:38.226Z,98583.89
2018-03-23T19:22:12.455Z,98582.48
2018-03-23T19:24:47.098Z,98579.05
2018-03-23T19:27:21.727Z,98584.48
2018-03-23T19:29:55.351Z,98578.66
2018-03-23T19:32:29.034Z,98586.20
2018-03-23T19:35:03.077Z,98579.89
2018-03-23T19:37:36.638Z,98584.59
2018-03-23T19:40:10.429Z,98580.86
2018-03-23T19:42:43.570Z,98577.97
2018-03-23T19:45:17.109Z,98582.77
2018-03-23T19:47:51.115Z,98576.19
2018-03-23T19:50:24.262Z,98579.00
2018-03-23T19:52:57.506Z,98577.08
2018-03-23T19:55:30.787Z,98579.43
2018-03-23T19:58:03.898Z,98576.73
2018-03-23T20:00:37.153Z,98571.31
2018-03-23T20:03:11.666Z,98574.19
2018-03-23T20:05:45.469Z,98573.34
2018-03-23T20:08:19.166Z,98568.89
2018-03-23T20:10:53.046Z,98569.41
2018-03-23T20:13:26.919Z,98576.88
2018-03-23T20:16:00.167Z,98571.75
2018-03-23T20:18:35.228Z,98579.83
2018-03-23T20:21:11.516Z,98575.02
2018-03-23T20:23:44.822Z,98574.84
2018-03-23T20:26:18.028Z,98583.99
2018-03-23T20:28:51.466Z,98584.34
2018-03-23T20:31:28.933Z,98578.42
2018-03-23T20:34:02.668Z,98586.28
2018-03-23T20:36:36.717Z,98579.80
2018-03-23T20:39:09.909Z,98589.34
2018-03-23T20:41:44.168Z,98586.77
2018-03-23T20:44:19.394Z,98586.03
2018-03-23T20:46:52.796Z,98581.80
2018-03-23T20:49:26.540Z,98584.47
2018-03-23T20:52:03.941Z,98580.70
2018-03-23T20:54:37.296Z,98580.70
2018-03-23T20:57:10.551Z,98580.53
2018-03-23T20:59:44.484Z,98574.56
2018-03-23T21:02:18.487Z,98578.66
2018-03-23T21:04:51.463Z,98579.86
2018-03-23T21:09:53.543Z,98579.64
2018-03-23T21:12:34.122Z,98571.96
2018-03-23T21:15:07.442Z,98570.72
2018-03-23T21:17:41.387Z,98573.69
2018-03-23T21:20:15.001Z,98573.64
2018-03-23T21:22:48.461Z,98564.47
2018-03-23T21:25:22.099Z,98567.65
2018-03-23T21:27:55.134Z,98569.67
2018-03-23T21:30:28.607Z,98567.63
2018-03-23T21:33:02.533Z,98562.23
2018-03-23T21:35:35.940Z,98562.33
2018-03-23T21:38:09.969Z,98565.09
2018-03-23T21:40:43.465Z,98568.94
2018-03-23T21:43:17.081Z,98560.06
2018-03-23T21:45:50.225Z,98557.99
2018-03-23T21:48:23.681Z,98564.90
2018-03-23T21:50:56.898Z,98565.77
2018-03-23T21:53:30.057Z,98559.30
2018-03-23T21:56:08.253Z,98562.76
2018-03-23T21:58:42.702Z,98559.20
2018-03-23T22:01:15.939Z,98563.80
2018-03-23T22:03:49.416Z,98563.18
2018-03-23T22:06:22.569Z,98561.56
2018-03-23T22:08:56.036Z,98554.81
2018-03-23T22:11:30.186Z,98562.17
2018-03-23T22:14:04.712Z,98563.75
2018-03-23T22:16:37.911Z,98567.86
2018-03-23T22:19:11.130Z,98564.75
2018-03-23T22:21:44.165Z,98570.73
2018-03-23T22:24:17.185Z,98570.73
2018-03-23T22:26:50.542Z,98571.16
2018-03-23T22:29:24.028Z,98567.16
2018-03-23T22:31:57.995Z,98561.56
2018-03-23T22:34:31.942Z,98561.12
2018-03-23T22:37:05.382Z,98558.50
2018-03-23T22:39:39.719Z,98561.47
2018-03-23T22:42:17.570Z,98557.98
2018-03-23T22:44:50.761Z,98557.34
2018-03-23T22:47:24.509Z,98557.90
2018-03-23T22:49:57.776Z,98557.72
2018-03-23T22:52:30.846Z,98560.41
2018-03-23T22:55:04.475Z,98551.83
2018-03-23T22:57:37.953Z,98544.00
2018-03-23T23:00:11.003Z,98546.94
2018-03-23T23:02:44.774Z,98542.39
2018-03-23T23:05:18.378Z,98555.97
2018-03-23T23:07:51.461Z,98550.82
2018-03-23T23:10:24.869Z,98549.38
2018-03-23T23:13:02.148Z,98552.87
2018-03-23T23:15:35.574Z,98552.95
2018-03-23T23:18:09.855Z,98555.07
2018-03-23T23:20:45.031Z,98551.03
2018-03-23T23:23:18.276Z,98549.05
2018-03-23T23:25:51.890Z,98550.07
2018-03-23T23:28:25.186Z,98550.30
2018-03-23T23:30:59.019Z,98549.31
2018-03-23T23:33:32.791Z,98549.40
2018-03-23T23:36:05.901Z,98553.34
2018-03-23T23:38:39.017Z,98549.91
2018-03-23T23:41:12.711Z,98543.20
2018-03-23T23:43:49.478Z,98542.05
2018-03-23T23:46:23.608Z,98537.42
2018-03-23T23:48:57.384Z,98535.17
2018-03-23T23:51:30.558Z,98537.19
2018-03-23T23:54:04.028Z,98536.50
2018-03-23T23:56:38.210Z,98537.01
2018-03-23T23:59:12.785Z,98529.48
